createdAt,value
2023-01-25T00:01:36.695Z,82.99
2023-01-25T00:04:03.820Z,83.33
2023-01-25T00:06:30.833Z,82.79
2023-01-25T00:08:57.834Z,82.32
2023-01-25T00:11:24.895Z,81.60
2023-01-25T00:13:54.637Z,81.04
2023-01-25T00:16:22.341Z,79.92
2023-01-25T00:18:49.853Z,79.77
2023-01-25T00:21:20.957Z,79.38
2023-01-25T00:23:48.285Z,79.68
2023-01-25T00:26:15.805Z,79.10
2023-01-25T00:28:43.165Z,78.53
2023-01-25T00:31:21.490Z,78.31
2023-01-25T00:34:01.384Z,77.86
2023-01-25T00:36:36.879Z,78.59
2023-01-25T00:39:12.395Z,78.24
2023-01-25T00:41:40.807Z,78.06
2023-01-25T00:44:07.967Z,77.50
2023-01-25T00:46:35.052Z,77.76
2023-01-25T00:49:02.255Z,77.28
2023-01-25T00:51:29.285Z,77.62
2023-01-25T00:53:56.342Z,77.92
2023-01-25T00:56:23.479Z,77.05
2023-01-25T00:58:50.549Z,76.57
2023-01-25T01:01:17.625Z,76.68
2023-01-25T01:03:44.687Z,76.34
2023-01-25T01:06:13.052Z,76.66
2023-01-25T01:08:41.811Z,76.68
2023-01-25T01:11:12.732Z,76.84
2023-01-25T01:13:41.052Z,76.44
2023-01-25T01:16:12.631Z,76.09
2023-01-25T01:18:44.214Z,75.63
2023-01-25T01:21:13.553Z,75.33
2023-01-25T01:23:41.144Z,75.57
2023-01-25T01:26:13.754Z,75.35
2023-01-25T01:28:41.037Z,74.61
2023-01-25T01:31:15.042Z,74.21
2023-01-25T01:33:42.325Z,74.01
2023-01-25T01:36:13.551Z,74.35
2023-01-25T01:38:41.549Z,74.15
2023-01-25T01:41:09.461Z,74.46
2023-01-25T01:43:37.248Z,74.06
2023-01-25T01:46:19.057Z,73.72
2023-01-25T01:49:04.021Z,74.26
2023-01-25T01:51:58.150Z,74.28
2023-01-25T01:54:43.705Z,74.15
2023-01-25T01:57:20.267Z,74.40
2023-01-25T02:00:03.944Z,73.65
2023-01-25T02:02:31.028Z,73.41
2023-01-25T02:05:03.780Z,73.34
2023-01-25T02:07:37.272Z,72.92
2023-01-25T02:10:09.604Z,73.10
2023-01-25T02:12:37.954Z,73.59
2023-01-25T02:15:07.139Z,73.10
2023-01-25T02:17:39.891Z,73.63
2023-01-25T02:20:30.053Z,73.21
2023-01-25T02:23:11.552Z,73.17
2023-01-25T02:25:38.783Z,73.26
2023-01-25T02:28:18.965Z,73.16
2023-01-25T02:30:47.127Z,72.99
2023-01-25T02:33:14.384Z,72.91
2023-01-25T02:35:53.970Z,73.25
2023-01-25T02:38:21.452Z,73.03
2023-01-25T02:41:03.232Z,73.31
2023-01-25T02:43:33.771Z,73.45
2023-01-25T02:46:27.796Z,73.11
2023-01-25T02:48:56.460Z,72.95
2023-01-25T02:51:27.199Z,72.81
2023-01-25T02:53:54.682Z,72.96
2023-01-25T02:56:22.235Z,72.73
2023-01-25T02:58:49.769Z,72.56
2023-01-25T03:01:17.528Z,72.58
2023-01-25T03:03:44.685Z,72.62
2023-01-25T03:06:12.009Z,72.78
2023-01-25T03:08:39.099Z,72.61
2023-01-25T03:11:07.756Z,72.64
2023-01-25T03:13:36.092Z,72.10
2023-01-25T03:16:10.647Z,72.74
2023-01-25T03:18:38.742Z,72.83
2023-01-25T03:21:12.664Z,72.82
2023-01-25T03:23:40.437Z,72.70
2023-01-25T03:26:19.118Z,72.99
2023-01-25T03:28:46.425Z,73.30
2023-01-25T03:31:16.331Z,73.37
2023-01-25T03:33:43.974Z,73.30
2023-01-25T03:36:11.396Z,73.26
2023-01-25T03:38:38.513Z,72.55
2023-01-25T03:41:05.747Z,72.88
2023-01-25T03:43:32.879Z,72.89
2023-01-25T03:46:02.169Z,73.16
2023-01-25T03:48:29.729Z,73.75
2023-01-25T03:50:59.408Z,73.76
2023-01-25T03:53:30.282Z,73.39
2023-01-25T03:56:03.152Z,72.99
2023-01-25T03:58:31.302Z,73.71
2023-01-25T04:01:04.180Z,74.04
2023-01-25T04:03:32.337Z,73.27
2023-01-25T04:06:00.406Z,73.52
2023-01-25T04:08:27.716Z,73.62
2023-01-25T04:11:00.545Z,73.48
2023-01-25T04:13:28.321Z,73.70
2023-01-25T04:15:55.491Z,73.58
2023-01-25T04:18:22.631Z,73.19
2023-01-25T04:20:55.153Z,72.87
2023-01-25T04:23:23.518Z,73.51
2023-01-25T04:25:59.830Z,73.04
2023-01-25T04:28:28.375Z,73.00
2023-01-25T04:30:57.041Z,73.03
2023-01-25T04:33:25.287Z,73.56
2023-01-25T04:35:52.631Z,73.20
2023-01-25T04:38:20.042Z,73.53
2023-01-25T04:40:47.248Z,73.81
2023-01-25T04:43:16.654Z,73.11
2023-01-25T04:45:43.999Z,72.22
2023-01-25T04:48:13.361Z,72.61
2023-01-25T04:50:42.402Z,73.00
2023-01-25T04:53:11.746Z,72.93
2023-01-25T04:55:38.896Z,72.97
2023-01-25T04:58:05.985Z,73.22
2023-01-25T05:00:33.485Z,73.57
2023-01-25T05:03:00.513Z,73.48
2023-01-25T05:05:27.875Z,73.55
2023-01-25T05:07:54.979Z,73.57
2023-01-25T05:10:23.096Z,73.49
2023-01-25T05:12:50.178Z,73.58
2023-01-25T05:15:17.275Z,73.33
2023-01-25T05:17:44.771Z,73.44
2023-01-25T05:20:12.549Z,73.15
2023-01-25T05:22:39.617Z,73.46
2023-01-25T05:25:27.040Z,73.40
2023-01-25T05:27:54.050Z,73.71
2023-01-25T05:30:21.186Z,73.36
2023-01-25T05:32:50.399Z,73.01
2023-01-25T05:35:17.622Z,73.29
2023-01-25T05:37:44.623Z,73.10
2023-01-25T05:40:12.313Z,72.93
2023-01-25T05:42:39.455Z,73.24
2023-01-25T05:45:07.841Z,72.90
2023-01-25T05:47:35.206Z,72.97
2023-01-25T05:50:02.227Z,72.80
2023-01-25T05:52:29.197Z,72.88
2023-01-25T05:54:56.180Z,72.77
2023-01-25T05:57:23.183Z,73.05
2023-01-25T05:59:50.181Z,73.00
2023-01-25T06:02:17.244Z,72.59
2023-01-25T06:04:44.370Z,72.57
2023-01-25T06:07:11.369Z,72.36
2023-01-25T06:09:38.396Z,73.15
2023-01-25T06:12:06.851Z,72.97
2023-01-25T06:14:33.888Z,72.15
2023-01-25T06:17:01.054Z,72.49
2023-01-25T06:19:28.361Z,72.74
2023-01-25T06:21:55.407Z,72.69
2023-01-25T06:24:22.460Z,72.72
2023-01-25T06:26:49.548Z,73.17
2023-01-25T06:29:16.616Z,73.14
2023-01-25T06:31:43.773Z,73.10
2023-01-25T06:34:12.662Z,72.95
2023-01-25T06:36:39.647Z,73.18
2023-01-25T06:39:06.794Z,73.02
2023-01-25T06:41:34.046Z,72.68
2023-01-25T06:44:01.156Z,72.98
2023-01-25T06:46:28.213Z,73.12
2023-01-25T06:48:55.250Z,73.22
2023-01-25T06:51:22.238Z,73.07
2023-01-25T06:53:49.386Z,73.38
2023-01-25T06:56:20.797Z,73.51
2023-01-25T06:58:48.691Z,73.82
2023-01-25T07:01:22.755Z,74.03
2023-01-25T07:03:52.712Z,73.79
2023-01-25T07:06:20.942Z,74.11
2023-01-25T07:08:49.255Z,73.61
2023-01-25T07:11:19.149Z,73.10
2023-01-25T07:13:47.720Z,73.01
2023-01-25T07:16:19.258Z,73.01
2023-01-25T07:18:47.154Z,72.97
2023-01-25T07:21:23.313Z,72.85
2023-01-25T07:23:51.517Z,73.08
2023-01-25T07:26:26.275Z,72.57
2023-01-25T07:28:55.803Z,72.60
2023-01-25T07:31:24.034Z,72.80
2023-01-25T07:33:53.691Z,73.21
2023-01-25T07:36:21.942Z,72.66
2023-01-25T07:38:49.324Z,72.98
2023-01-25T07:41:19.532Z,72.68
2023-01-25T07:43:46.610Z,72.65
2023-01-25T07:46:15.584Z,72.26
2023-01-25T07:48:48.643Z,72.86
2023-01-25T07:51:23.723Z,72.19
2023-01-25T07:53:54.252Z,72.21
2023-01-25T07:56:24.597Z,72.07
2023-01-25T07:58:54.826Z,71.94
2023-01-25T08:01:25.115Z,71.53
2023-01-25T08:03:55.739Z,72.22
2023-01-25T08:06:30.854Z,72.26
2023-01-25T08:08:59.994Z,71.68
2023-01-25T08:11:30.166Z,71.07
2023-01-25T08:13:57.602Z,71.16
2023-01-25T08:16:27.663Z,71.16
2023-01-25T08:18:58.196Z,70.93
2023-01-25T08:21:30.194Z,70.92
2023-01-25T08:24:02.545Z,71.18
2023-01-25T08:26:30.098Z,70.81
2023-01-25T08:28:57.902Z,70.82
2023-01-25T08:31:31.419Z,70.38
2023-01-25T08:33:59.474Z,70.20
2023-01-25T08:36:30.243Z,70.55
2023-01-25T08:39:06.009Z,70.42
2023-01-25T08:41:35.622Z,70.72
2023-01-25T08:44:02.785Z,70.92
2023-01-25T08:46:33.341Z,69.99
2023-01-25T08:49:02.363Z,70.52
2023-01-25T08:51:31.680Z,70.50
2023-01-25T08:54:04.984Z,70.50
2023-01-25T08:56:32.210Z,70.15
2023-01-25T08:58:59.258Z,70.39
2023-01-25T09:01:26.269Z,70.70
2023-01-25T09:03:54.765Z,71.21
2023-01-25T09:06:21.829Z,70.72
2023-01-25T09:08:49.677Z,70.37
2023-01-25T09:11:21.166Z,70.43
2023-01-25T09:13:49.235Z,70.17
2023-01-25T09:16:28.678Z,70.21
2023-01-25T09:18:59.193Z,69.68
2023-01-25T09:21:26.362Z,69.79
2023-01-25T09:24:05.929Z,69.38
2023-01-25T09:26:37.689Z,69.65
2023-01-25T09:29:05.428Z,69.98
2023-01-25T09:31:32.502Z,70.21
2023-01-25T09:33:59.619Z,69.56
2023-01-25T09:36:27.009Z,70.06
2023-01-25T09:38:55.075Z,69.83
2023-01-25T09:41:25.068Z,69.66
2023-01-25T09:44:13.788Z,68.48
2023-01-25T09:46:42.510Z,68.93
2023-01-25T09:49:39.671Z,68.92
2023-01-25T09:53:12.442Z,69.12
2023-01-25T09:55:40.260Z,69.54
2023-01-25T09:58:18.275Z,69.38
2023-01-25T10:00:48.175Z,69.65
2023-01-25T10:03:57.829Z,69.61
2023-01-25T10:06:46.078Z,69.88
2023-01-25T10:09:42.666Z,69.46
2023-01-25T10:12:19.233Z,69.44
2023-01-25T10:14:46.581Z,69.08
2023-01-25T10:17:40.433Z,68.90
2023-01-25T10:20:51.101Z,69.44
2023-01-25T10:23:36.065Z,69.43
2023-01-25T10:26:23.897Z,69.52
2023-01-25T10:29:18.049Z,69.51
2023-01-25T10:31:50.550Z,68.91
2023-01-25T10:34:56.793Z,69.26
2023-01-25T10:37:30.890Z,69.36
2023-01-25T10:40:09.591Z,69.74
2023-01-25T10:43:02.275Z,69.35
2023-01-25T10:45:29.289Z,69.36
2023-01-25T10:48:06.366Z,69.48
2023-01-25T10:50:46.545Z,69.80
2023-01-25T10:53:37.142Z,70.07
2023-01-25T10:56:12.924Z,70.27
2023-01-25T10:58:47.024Z,70.09
2023-01-25T11:01:31.301Z,69.94
2023-01-25T11:03:59.557Z,69.86
2023-01-25T11:06:34.211Z,69.86
2023-01-25T11:09:22.850Z,69.57
2023-01-25T11:12:00.807Z,69.87
2023-01-25T11:14:33.463Z,70.18
2023-01-25T11:17:04.252Z,69.61
2023-01-25T11:19:40.496Z,69.39
2023-01-25T11:22:24.503Z,70.04
2023-01-25T11:24:52.090Z,69.96
2023-01-25T11:27:27.388Z,70.56
2023-01-25T11:30:11.202Z,70.54
2023-01-25T11:32:39.802Z,70.15
2023-01-25T11:35:27.545Z,69.40
2023-01-25T11:38:19.919Z,69.00
2023-01-25T11:40:57.167Z,69.43
2023-01-25T11:43:52.782Z,69.38
2023-01-25T11:47:07.262Z,69.68
2023-01-25T11:50:01.376Z,70.14
2023-01-25T11:52:50.441Z,70.32
2023-01-25T11:55:54.382Z,70.00
2023-01-25T11:58:39.989Z,69.05
2023-01-25T12:01:34.828Z,68.58
2023-01-25T12:04:36.197Z,69.17
2023-01-25T12:07:25.518Z,69.05
2023-01-25T12:10:28.383Z,68.64
2023-01-25T12:13:15.609Z,68.67
2023-01-25T12:16:18.939Z,68.84
2023-01-25T12:19:16.551Z,69.05
2023-01-25T12:22:12.182Z,69.43
2023-01-25T12:25:17.077Z,69.08
2023-01-25T12:27:56.201Z,69.07
2023-01-25T12:31:12.617Z,69.19
2023-01-25T12:34:03.840Z,69.97
2023-01-25T12:37:00.110Z,69.76
2023-01-25T12:39:40.335Z,70.08
2023-01-25T12:42:23.270Z,69.49
2023-01-25T12:45:11.887Z,69.29
2023-01-25T12:47:47.286Z,69.25
2023-01-25T12:50:46.284Z,69.63
2023-01-25T12:53:48.299Z,69.11
2023-01-25T12:56:44.103Z,69.06
2023-01-25T12:59:43.831Z,68.90
2023-01-25T13:02:34.241Z,69.42
2023-01-25T13:05:16.299Z,68.83
2023-01-25T13:08:30.053Z,69.37
2023-01-25T13:11:15.453Z,69.08
2023-01-25T13:13:42.816Z,69.84
2023-01-25T13:16:36.528Z,69.83
2023-01-25T13:19:03.888Z,69.53
2023-01-25T13:21:44.979Z,69.94
2023-01-25T13:24:24.025Z,69.97
2023-01-25T13:26:54.218Z,69.76
2023-01-25T13:29:36.484Z,69.66
2023-01-25T13:32:34.838Z,68.99
2023-01-25T13:35:02.540Z,68.84
2023-01-25T13:37:33.408Z,68.76
2023-01-25T13:40:34.145Z,68.68
2023-01-25T13:43:05.462Z,69.32
2023-01-25T13:45:36.426Z,69.32
2023-01-25T13:48:09.209Z,69.39
2023-01-25T13:50:43.464Z,69.04
2023-01-25T13:53:16.467Z,69.67
2023-01-25T13:56:02.876Z,69.44
2023-01-25T13:58:48.068Z,69.55
2023-01-25T14:01:19.898Z,69.47
2023-01-25T14:04:02.161Z,69.96
2023-01-25T14:06:39.602Z,70.20
2023-01-25T14:09:22.797Z,70.08
2023-01-25T14:12:00.347Z,69.92
2023-01-25T14:14:33.357Z,70.06
2023-01-25T14:17:11.937Z,70.01
2023-01-25T14:19:45.591Z,69.93
2023-01-25T14:22:28.003Z,70.61
2023-01-25T14:25:17.642Z,70.80
2023-01-25T14:28:06.662Z,70.23
2023-01-25T14:30:36.218Z,70.94
2023-01-25T14:33:18.848Z,71.51
2023-01-25T14:35:56.311Z,71.30
2023-01-25T14:38:43.184Z,71.90
2023-01-25T14:41:34.787Z,71.52
2023-01-25T14:44:13.978Z,71.45
2023-01-25T14:46:41.971Z,71.79
2023-01-25T14:49:11.932Z,71.62
2023-01-25T14:51:49.193Z,71.75
2023-01-25T14:54:26.125Z,71.98
2023-01-25T14:57:06.035Z,72.43
2023-01-25T14:59:37.822Z,71.84
2023-01-25T15:02:44.618Z,72.23
2023-01-25T15:05:27.718Z,72.63
2023-01-25T15:08:24.953Z,72.40
2023-01-25T15:10:53.773Z,72.00
2023-01-25T15:13:28.287Z,71.92
2023-01-25T15:16:00.863Z,72.26
2023-01-25T15:18:54.154Z,72.05
2023-01-25T15:21:33.061Z,71.98
2023-01-25T15:24:06.550Z,71.85
2023-01-25T15:26:35.427Z,71.67
2023-01-25T15:29:15.188Z,70.94
2023-01-25T15:31:43.077Z,71.14
2023-01-25T15:34:21.195Z,71.32
2023-01-25T15:36:48.508Z,71.43
2023-01-25T15:39:18.994Z,71.71
2023-01-25T15:41:46.868Z,71.51
2023-01-25T15:44:14.051Z,71.58
2023-01-25T15:46:46.298Z,71.34
2023-01-25T15:49:28.797Z,71.65
2023-01-25T15:51:56.560Z,71.65
2023-01-25T15:54:24.548Z,71.23
2023-01-25T15:56:56.141Z,71.23
2023-01-25T15:59:23.653Z,71.37
2023-01-25T16:01:50.769Z,71.24
2023-01-25T16:04:17.874Z,71.55
2023-01-25T16:06:47.735Z,71.06
2023-01-25T16:09:25.081Z,70.76
2023-01-25T16:11:58.615Z,71.04
2023-01-25T16:14:31.447Z,70.72
2023-01-25T16:17:03.096Z,70.94
2023-01-25T16:19:31.005Z,71.00
2023-01-25T16:21:58.288Z,71.03
2023-01-25T16:24:25.398Z,70.25
2023-01-25T16:26:58.361Z,70.15
2023-01-25T16:29:26.388Z,70.07
2023-01-25T16:31:54.443Z,70.60
2023-01-25T16:34:22.192Z,70.57
2023-01-25T16:36:51.012Z,70.66
2023-01-25T16:39:24.255Z,70.89
2023-01-25T16:41:51.616Z,70.81
2023-01-25T16:44:19.348Z,71.01
2023-01-25T16:46:48.329Z,71.02
2023-01-25T16:49:27.458Z,70.94
2023-01-25T16:51:55.353Z,70.82
2023-01-25T16:54:23.578Z,71.28
2023-01-25T16:56:52.266Z,71.25
2023-01-25T16:59:20.567Z,71.50
2023-01-25T17:01:48.261Z,71.29
2023-01-25T17:04:15.725Z,71.63
2023-01-25T17:06:46.621Z,71.98
2023-01-25T17:09:23.339Z,72.19
2023-01-25T17:11:52.137Z,71.91
2023-01-25T17:14:20.228Z,71.92
2023-01-25T17:16:51.347Z,72.37
2023-01-25T17:19:20.033Z,72.28
2023-01-25T17:21:47.222Z,72.44
2023-01-25T17:24:18.065Z,72.47
2023-01-25T17:26:45.162Z,72.61
2023-01-25T17:29:13.769Z,73.06
2023-01-25T17:31:42.235Z,73.50
2023-01-25T17:34:13.686Z,73.64
2023-01-25T17:36:40.865Z,73.68
2023-01-25T17:39:08.487Z,73.59
2023-01-25T17:41:36.060Z,73.71
2023-01-25T17:44:03.628Z,74.18
2023-01-25T17:46:35.070Z,73.99
2023-01-25T17:49:05.897Z,74.03
2023-01-25T17:51:34.744Z,74.07
2023-01-25T17:54:02.837Z,74.05
2023-01-25T17:56:30.443Z,74.03
2023-01-25T17:59:00.550Z,74.42
2023-01-25T18:01:31.259Z,74.07
2023-01-25T18:03:58.719Z,73.94
2023-01-25T18:06:29.807Z,74.26
2023-01-25T18:09:00.741Z,74.01
2023-01-25T18:11:34.435Z,74.77
2023-01-25T18:14:08.224Z,75.07
2023-01-25T18:16:38.925Z,75.31
2023-01-25T18:19:06.649Z,74.66
2023-01-25T18:21:35.075Z,74.68
2023-01-25T18:24:25.853Z,75.61
2023-01-25T18:27:00.170Z,75.40
2023-01-25T18:29:45.698Z,75.33
2023-01-25T18:32:13.954Z,75.74
2023-01-25T18:34:41.129Z,76.04
2023-01-25T18:37:18.274Z,75.97
2023-01-25T18:39:54.384Z,76.08
2023-01-25T18:42:24.539Z,76.28
2023-01-25T18:44:51.833Z,75.68
2023-01-25T18:47:21.578Z,76.15
2023-01-25T18:49:50.764Z,75.63
2023-01-25T18:52:20.427Z,76.02
2023-01-25T18:54:47.556Z,75.78
2023-01-25T18:57:15.814Z,76.26
2023-01-25T18:59:43.930Z,76.40
2023-01-25T19:02:14.519Z,76.70
2023-01-25T19:04:41.566Z,76.60
2023-01-25T19:07:08.826Z,76.64
2023-01-25T19:09:35.910Z,77.16
2023-01-25T19:12:03.369Z,76.95
2023-01-25T19:14:30.419Z,76.95
2023-01-25T19:16:57.508Z,76.58
2023-01-25T19:19:24.585Z,76.64
2023-01-25T19:21:51.697Z,76.11
2023-01-25T19:24:19.797Z,76.21
2023-01-25T19:26:47.514Z,76.04
2023-01-25T19:29:15.626Z,76.24
2023-01-25T19:31:42.755Z,76.33
2023-01-25T19:34:09.923Z,76.34
2023-01-25T19:36:47.461Z,76.98
2023-01-25T19:39:14.580Z,77.04
2023-01-25T19:41:42.203Z,77.18
2023-01-25T19:44:13.758Z,76.84
2023-01-25T19:46:40.946Z,76.24
2023-01-25T19:49:10.539Z,76.22
2023-01-25T19:51:41.442Z,76.17
2023-01-25T19:54:16.750Z,75.72
2023-01-25T19:56:47.436Z,75.86
2023-01-25T19:59:24.955Z,76.15
2023-01-25T20:01:52.451Z,76.21
2023-01-25T20:04:22.977Z,76.34
2023-01-25T20:06:51.618Z,76.01
2023-01-25T20:09:20.260Z,76.01
2023-01-25T20:11:47.630Z,76.23
2023-01-25T20:14:15.840Z,76.15
2023-01-25T20:16:42.966Z,76.22
2023-01-25T20:19:12.510Z,76.40
2023-01-25T20:21:39.948Z,76.24
2023-01-25T20:24:09.869Z,76.34
2023-01-25T20:26:39.393Z,76.05
2023-01-25T20:29:07.607Z,76.40
2023-01-25T20:31:38.040Z,76.35
2023-01-25T20:34:10.437Z,76.07
2023-01-25T20:36:37.780Z,76.36
2023-01-25T20:39:07.102Z,76.17
2023-01-25T20:41:35.081Z,76.54
2023-01-25T20:44:11.281Z,76.63
2023-01-25T20:46:40.984Z,76.53
2023-01-25T20:49:13.800Z,76.75
2023-01-25T20:51:42.841Z,76.98
2023-01-25T20:54:10.558Z,76.94
2023-01-25T20:56:37.815Z,76.97
2023-01-25T20:59:05.883Z,76.64
2023-01-25T21:01:36.664Z,76.80
2023-01-25T21:04:06.374Z,77.12
2023-01-25T21:06:35.233Z,76.93
2023-01-25T21:09:04.037Z,76.88
2023-01-25T21:11:31.705Z,77.12
2023-01-25T21:13:59.627Z,77.52
2023-01-25T21:16:27.163Z,77.44
2023-01-25T21:18:58.308Z,77.20
2023-01-25T21:21:34.652Z,77.58
2023-01-25T21:24:02.966Z,77.13
2023-01-25T21:26:33.530Z,77.25
2023-01-25T21:29:02.216Z,77.13
2023-01-25T21:31:32.998Z,77.89
2023-01-25T21:34:01.041Z,77.58
2023-01-25T21:36:28.330Z,77.92
2023-01-25T21:38:56.213Z,77.93
2023-01-25T21:41:26.402Z,77.82
2023-01-25T21:44:14.263Z,77.95
2023-01-25T21:46:41.763Z,78.01
2023-01-25T21:49:30.359Z,78.23
2023-01-25T21:52:03.785Z,78.27
2023-01-25T21:54:37.012Z,78.11
2023-01-25T21:57:09.427Z,77.79
2023-01-25T21:59:38.111Z,77.97
2023-01-25T22:02:08.243Z,77.83
2023-01-25T22:04:36.217Z,77.75
2023-01-25T22:07:04.137Z,77.94
2023-01-25T22:09:31.239Z,77.81
2023-01-25T22:11:58.594Z,77.94
2023-01-25T22:14:25.672Z,77.87
2023-01-25T22:16:53.310Z,78.09
2023-01-25T22:19:20.347Z,77.94
2023-01-25T22:21:47.829Z,78.30
2023-01-25T22:24:15.368Z,77.91
2023-01-25T22:27:17.234Z,78.24
2023-01-25T22:29:44.274Z,78.48
2023-01-25T22:32:11.272Z,78.33
2023-01-25T22:34:38.284Z,78.23
2023-01-25T22:37:05.362Z,78.49
2023-01-25T22:39:32.374Z,78.92
2023-01-25T22:41:59.372Z,78.74
2023-01-25T22:44:26.408Z,78.95
2023-01-25T22:46:53.866Z,78.76
2023-01-25T22:49:20.989Z,78.36
2023-01-25T22:51:47.998Z,78.26
2023-01-25T22:54:15.004Z,78.79
2023-01-25T22:56:42.050Z,78.81
2023-01-25T22:59:12.189Z,78.21
2023-01-25T23:01:39.256Z,78.17
2023-01-25T23:04:06.435Z,78.47
2023-01-25T23:06:36.560Z,78.68
2023-01-25T23:09:06.400Z,78.55
2023-01-25T23:11:37.473Z,78.64
2023-01-25T23:14:30.314Z,78.57
2023-01-25T23:17:17.580Z,78.33
2023-01-25T23:19:44.824Z,78.53
2023-01-25T23:22:12.520Z,78.65
2023-01-25T23:24:39.637Z,78.42
2023-01-25T23:27:06.735Z,78.78
2023-01-25T23:29:33.808Z,78.59
2023-01-25T23:32:00.897Z,78.67
2023-01-25T23:34:28.035Z,78.67
2023-01-25T23:36:55.080Z,78.97
2023-01-25T23:39:23.628Z,78.82
2023-01-25T23:41:52.457Z,79.08
2023-01-25T23:44:19.431Z,78.97
2023-01-25T23:46:46.520Z,78.73
2023-01-25T23:49:13.810Z,79.06
2023-01-25T23:51:40.854Z,79.18
2023-01-25T23:54:07.964Z,78.97
2023-01-25T23:56:34.956Z,79.10
2023-01-25T23:59:02.062Z,79.21
